PSSDX SBCY-SBGO
Flight info
| Callsign | PSSDX |
|---|---|
| Flight time | 1h 52m |
| Altitude | 25000 |
| Route | DCT KOKLI UZ8 UKBEB OPVUD1A |
| Aircraft | P46T/L-SBDGRWY/SB1 |
Departure
| Time | 2026-04-23 11:38 |
|---|---|
| Airport | Várzea Grande–Marechal Rondon International Airport (SBCY) |
Arrival
| Time | 2026-04-23 13:30 |
|---|---|
| Airport | Santa Genoveva International Airport (SBGO) |
| Time | Latitude | Longitude | Altitude | Speed | Heading |
|---|---|---|---|---|---|
| 2026-04-23 11:26 | -15.66105 | -56.11469 | 599 ft | 0 kts | 60° |
| 2026-04-23 11:31 | -15.66104 | -56.11468 | 599 ft | 2 kts | 58° |
| 2026-04-23 11:32 | -15.66128 | -56.11430 | 599 ft | 11 kts | 154° |
| 2026-04-23 11:32 | -15.66221 | -56.11379 | 599 ft | 17 kts | 126° |
| 2026-04-23 11:32 | -15.66237 | -56.11298 | 599 ft | 9 kts | 142° |
| 2026-04-23 11:32 | -15.66250 | -56.11276 | 599 ft | 0 kts | 99° |
| 2026-04-23 11:36 | -15.66251 | -56.11265 | 599 ft | 6 kts | 90° |
| 2026-04-23 11:36 | -15.66211 | -56.11193 | 595 ft | 14 kts | 30° |
| 2026-04-23 11:36 | -15.66187 | -56.11196 | 595 ft | 0 kts | 331° |
| 2026-04-23 11:37 | -15.66071 | -56.11254 | 594 ft | 44 kts | 330° |
| 2026-04-23 11:37 | -15.65657 | -56.11487 | 596 ft | 88 kts | 330° |
| 2026-04-23 11:37 | -15.65005 | -56.11827 | 631 ft | 120 kts | 334° |
| 2026-04-23 11:38 | -15.64184 | -56.12243 | 773 ft | 142 kts | 336° |
| 2026-04-23 11:38 | -15.63332 | -56.12664 | 1287 ft | 132 kts | 335° |
| 2026-04-23 11:38 | -15.62492 | -56.13088 | 1621 ft | 136 kts | 335° |
| 2026-04-23 11:38 | -15.61636 | -56.13516 | 2022 ft | 137 kts | 335° |
| 2026-04-23 11:39 | -15.60774 | -56.13955 | 2435 ft | 139 kts | 335° |
| 2026-04-23 11:39 | -15.59900 | -56.14393 | 2839 ft | 140 kts | 341° |
| 2026-04-23 11:39 | -15.58992 | -56.14283 | 3332 ft | 133 kts | 39° |
| 2026-04-23 11:39 | -15.58429 | -56.13549 | 3755 ft | 131 kts | 71° |
| 2026-04-23 11:40 | -15.58380 | -56.12626 | 4137 ft | 130 kts | 102° |
| 2026-04-23 11:40 | -15.58589 | -56.11711 | 4545 ft | 131 kts | 102° |
| 2026-04-23 11:40 | -15.58762 | -56.10785 | 4985 ft | 131 kts | 100° |
| 2026-04-23 11:40 | -15.58929 | -56.09852 | 5408 ft | 131 kts | 99° |
| 2026-04-23 11:41 | -15.59087 | -56.08923 | 5835 ft | 131 kts | 99° |
| 2026-04-23 11:41 | -15.59245 | -56.07994 | 6235 ft | 130 kts | 99° |
| 2026-04-23 11:41 | -15.59403 | -56.07069 | 6642 ft | 130 kts | 98° |
| 2026-04-23 11:41 | -15.59558 | -56.06136 | 6997 ft | 132 kts | 98° |
| 2026-04-23 11:42 | -15.59715 | -56.05198 | 7358 ft | 133 kts | 98° |
| 2026-04-23 11:42 | -15.59875 | -56.04251 | 7735 ft | 134 kts | 97° |
| 2026-04-23 11:42 | -15.60035 | -56.03296 | 8089 ft | 135 kts | 98° |
| 2026-04-23 11:42 | -15.60198 | -56.02333 | 8479 ft | 136 kts | 98° |
| 2026-04-23 11:43 | -15.60361 | -56.01363 | 8856 ft | 137 kts | 98° |
| 2026-04-23 11:43 | -15.60526 | -56.00384 | 9229 ft | 138 kts | 98° |
| 2026-04-23 11:43 | -15.60692 | -55.99398 | 9620 ft | 139 kts | 98° |
| 2026-04-23 11:43 | -15.60856 | -55.98402 | 9989 ft | 141 kts | 98° |
| 2026-04-23 11:44 | -15.61026 | -55.97400 | 10336 ft | 141 kts | 98° |
| 2026-04-23 11:44 | -15.61196 | -55.96391 | 10679 ft | 142 kts | 98° |
| 2026-04-23 11:44 | -15.61365 | -55.95376 | 11014 ft | 143 kts | 99° |
| 2026-04-23 11:44 | -15.61539 | -55.94356 | 11366 ft | 144 kts | 100° |
| 2026-04-23 11:45 | -15.61711 | -55.93331 | 11707 ft | 145 kts | 100° |
| 2026-04-23 11:45 | -15.61882 | -55.92298 | 12055 ft | 146 kts | 100° |
| 2026-04-23 11:45 | -15.62057 | -55.91259 | 12397 ft | 147 kts | 101° |
| 2026-04-23 11:45 | -15.62232 | -55.90213 | 12743 ft | 147 kts | 101° |
| 2026-04-23 11:46 | -15.62407 | -55.89164 | 13091 ft | 148 kts | 101° |
| 2026-04-23 11:46 | -15.62585 | -55.88107 | 13441 ft | 149 kts | 101° |
| 2026-04-23 11:46 | -15.62762 | -55.87043 | 13785 ft | 150 kts | 102° |
| 2026-04-23 11:46 | -15.62942 | -55.85975 | 14118 ft | 151 kts | 102° |
| 2026-04-23 11:47 | -15.63123 | -55.84896 | 14419 ft | 153 kts | 102° |
| 2026-04-23 11:47 | -15.63305 | -55.83806 | 14723 ft | 154 kts | 102° |
| 2026-04-23 11:47 | -15.63488 | -55.82711 | 15031 ft | 155 kts | 102° |
| 2026-04-23 11:47 | -15.63672 | -55.81606 | 15332 ft | 156 kts | 102° |
| 2026-04-23 11:48 | -15.63859 | -55.80491 | 15627 ft | 158 kts | 102° |
| 2026-04-23 11:48 | -15.64044 | -55.79381 | 15922 ft | 159 kts | 102° |
| 2026-04-23 11:48 | -15.64235 | -55.78231 | 16235 ft | 160 kts | 102° |
| 2026-04-23 11:48 | -15.64422 | -55.77104 | 16536 ft | 161 kts | 102° |
| 2026-04-23 11:49 | -15.64617 | -55.75953 | 16848 ft | 163 kts | 102° |
| 2026-04-23 11:49 | -15.64810 | -55.74791 | 17161 ft | 164 kts | 102° |
| 2026-04-23 11:49 | -15.65005 | -55.73624 | 17461 ft | 165 kts | 102° |
| 2026-04-23 11:49 | -15.65202 | -55.72443 | 17761 ft | 166 kts | 102° |
| 2026-04-23 11:50 | -15.65399 | -55.71258 | 18060 ft | 168 kts | 102° |
| 2026-04-23 11:50 | -15.65598 | -55.70062 | 18345 ft | 169 kts | 102° |
| 2026-04-23 11:50 | -15.65799 | -55.68857 | 18602 ft | 170 kts | 102° |
| 2026-04-23 11:50 | -15.66000 | -55.67648 | 18862 ft | 170 kts | 101° |
| 2026-04-23 11:51 | -15.66202 | -55.66433 | 19124 ft | 171 kts | 101° |
| 2026-04-23 11:51 | -15.66405 | -55.65215 | 19383 ft | 172 kts | 101° |
| 2026-04-23 11:51 | -15.66608 | -55.63992 | 19646 ft | 172 kts | 101° |
| 2026-04-23 11:51 | -15.66812 | -55.62768 | 19928 ft | 173 kts | 101° |
| 2026-04-23 11:52 | -15.67015 | -55.61537 | 20195 ft | 174 kts | 101° |
| 2026-04-23 11:52 | -15.67221 | -55.60301 | 20467 ft | 174 kts | 101° |
| 2026-04-23 11:52 | -15.67427 | -55.59061 | 20745 ft | 175 kts | 101° |
| 2026-04-23 11:52 | -15.67634 | -55.57815 | 21009 ft | 176 kts | 101° |
| 2026-04-23 11:53 | -15.67841 | -55.56565 | 21278 ft | 176 kts | 101° |
| 2026-04-23 11:53 | -15.68050 | -55.55308 | 21534 ft | 177 kts | 100° |
| 2026-04-23 11:53 | -15.68259 | -55.54047 | 21812 ft | 178 kts | 100° |
| 2026-04-23 11:53 | -15.68468 | -55.52781 | 22083 ft | 178 kts | 100° |
| 2026-04-23 11:54 | -15.68679 | -55.51511 | 22345 ft | 179 kts | 100° |
| 2026-04-23 11:54 | -15.68890 | -55.50236 | 22614 ft | 180 kts | 100° |
| 2026-04-23 11:54 | -15.69102 | -55.48954 | 22886 ft | 181 kts | 100° |
| 2026-04-23 11:54 | -15.69316 | -55.47665 | 23149 ft | 182 kts | 99° |
| 2026-04-23 11:55 | -15.69529 | -55.46372 | 23428 ft | 182 kts | 100° |
| 2026-04-23 11:55 | -15.69745 | -55.45071 | 23675 ft | 183 kts | 99° |
| 2026-04-23 11:55 | -15.69961 | -55.43768 | 23892 ft | 184 kts | 99° |
| 2026-04-23 11:55 | -15.70176 | -55.42461 | 24116 ft | 184 kts | 99° |
| 2026-04-23 11:56 | -15.70392 | -55.41152 | 24339 ft | 184 kts | 99° |
| 2026-04-23 11:56 | -15.70609 | -55.39840 | 24556 ft | 185 kts | 99° |
| 2026-04-23 11:56 | -15.70826 | -55.38525 | 24777 ft | 185 kts | 98° |
| 2026-04-23 11:56 | -15.71043 | -55.37207 | 25010 ft | 185 kts | 98° |
| 2026-04-23 11:57 | -15.71267 | -55.35853 | 25052 ft | 196 kts | 98° |
| 2026-04-23 11:57 | -15.71503 | -55.34440 | 25065 ft | 207 kts | 99° |
| 2026-04-23 11:57 | -15.71757 | -55.32914 | 25064 ft | 216 kts | 99° |
| 2026-04-23 11:57 | -15.72017 | -55.31347 | 25060 ft | 224 kts | 99° |
| 2026-04-23 11:58 | -15.72285 | -55.29730 | 25064 ft | 230 kts | 99° |
| 2026-04-23 11:58 | -15.72554 | -55.28098 | 25064 ft | 235 kts | 99° |
| 2026-04-23 11:58 | -15.72832 | -55.26416 | 25059 ft | 238 kts | 99° |
| 2026-04-23 11:58 | -15.73112 | -55.24712 | 25057 ft | 241 kts | 99° |
| 2026-04-23 11:59 | -15.73395 | -55.22990 | 25052 ft | 243 kts | 99° |
| 2026-04-23 11:59 | -15.73681 | -55.21256 | 25051 ft | 245 kts | 99° |
| 2026-04-23 11:59 | -15.73968 | -55.19507 | 25050 ft | 246 kts | 99° |
| 2026-04-23 11:59 | -15.74255 | -55.17755 | 25049 ft | 247 kts | 99° |
| 2026-04-23 12:00 | -15.74544 | -55.15997 | 25049 ft | 247 kts | 99° |
| 2026-04-23 12:00 | -15.74832 | -55.14236 | 25046 ft | 248 kts | 99° |
| 2026-04-23 12:00 | -15.75121 | -55.12472 | 25048 ft | 248 kts | 99° |
| 2026-04-23 12:00 | -15.75410 | -55.10704 | 25048 ft | 249 kts | 99° |
| 2026-04-23 12:01 | -15.75700 | -55.08933 | 25048 ft | 249 kts | 99° |
| 2026-04-23 12:01 | -15.75991 | -55.07159 | 25050 ft | 249 kts | 99° |
| 2026-04-23 12:01 | -15.76281 | -55.05381 | 25049 ft | 250 kts | 98° |
| 2026-04-23 12:01 | -15.76571 | -55.03601 | 25047 ft | 250 kts | 98° |
| 2026-04-23 12:02 | -15.76862 | -55.01822 | 25049 ft | 250 kts | 98° |
| 2026-04-23 12:02 | -15.77153 | -55.00041 | 25048 ft | 250 kts | 98° |
| 2026-04-23 12:02 | -15.77444 | -54.98262 | 25048 ft | 250 kts | 98° |
| 2026-04-23 12:02 | -15.77732 | -54.96484 | 25050 ft | 250 kts | 98° |
| 2026-04-23 12:03 | -15.78022 | -54.94707 | 25052 ft | 250 kts | 98° |
| 2026-04-23 12:03 | -15.78312 | -54.92926 | 25048 ft | 250 kts | 98° |
| 2026-04-23 12:03 | -15.78602 | -54.91146 | 25047 ft | 250 kts | 98° |
| 2026-04-23 12:03 | -15.78892 | -54.89365 | 25043 ft | 250 kts | 98° |
| 2026-04-23 12:04 | -15.79181 | -54.87584 | 25046 ft | 250 kts | 98° |
| 2026-04-23 12:04 | -15.79470 | -54.85801 | 25042 ft | 251 kts | 98° |
| 2026-04-23 12:04 | -15.79760 | -54.84018 | 25042 ft | 250 kts | 98° |
| 2026-04-23 12:04 | -15.80049 | -54.82238 | 25043 ft | 251 kts | 98° |
| 2026-04-23 12:05 | -15.80338 | -54.80454 | 25042 ft | 250 kts | 98° |
| 2026-04-23 12:05 | -15.80534 | -54.79250 | 25044 ft | 250 kts | 98° |
| 2026-04-23 12:05 | -15.80820 | -54.77492 | 25043 ft | 250 kts | 98° |
| 2026-04-23 12:05 | -15.81107 | -54.75709 | 25041 ft | 250 kts | 98° |
| 2026-04-23 12:06 | -15.81395 | -54.73929 | 25044 ft | 250 kts | 98° |
| 2026-04-23 12:06 | -15.81684 | -54.72145 | 25045 ft | 251 kts | 98° |
| 2026-04-23 12:06 | -15.82263 | -54.68566 | 25042 ft | 251 kts | 98° |
| 2026-04-23 12:07 | -15.82551 | -54.66778 | 25044 ft | 251 kts | 98° |
| 2026-04-23 12:07 | -15.82840 | -54.64991 | 25043 ft | 251 kts | 98° |
| 2026-04-23 12:07 | -15.83129 | -54.63207 | 25040 ft | 251 kts | 98° |
| 2026-04-23 12:07 | -15.83416 | -54.61422 | 25043 ft | 251 kts | 98° |
| 2026-04-23 12:08 | -15.83703 | -54.59636 | 25043 ft | 251 kts | 98° |
| 2026-04-23 12:08 | -15.83992 | -54.57847 | 25042 ft | 251 kts | 98° |
| 2026-04-23 12:08 | -15.84280 | -54.56059 | 25042 ft | 251 kts | 98° |
| 2026-04-23 12:08 | -15.84568 | -54.54270 | 25040 ft | 251 kts | 98° |
| 2026-04-23 12:09 | -15.84856 | -54.52480 | 25044 ft | 251 kts | 98° |
| 2026-04-23 12:09 | -15.85144 | -54.50691 | 25041 ft | 251 kts | 98° |
| 2026-04-23 12:09 | -15.85430 | -54.48903 | 25044 ft | 251 kts | 98° |
| 2026-04-23 12:09 | -15.85717 | -54.47114 | 25040 ft | 251 kts | 98° |
| 2026-04-23 12:10 | -15.86005 | -54.45325 | 25045 ft | 251 kts | 98° |
| 2026-04-23 12:10 | -15.86293 | -54.43534 | 25041 ft | 251 kts | 98° |
| 2026-04-23 12:10 | -15.86580 | -54.41742 | 25040 ft | 252 kts | 98° |
| 2026-04-23 12:10 | -15.86866 | -54.39950 | 25040 ft | 252 kts | 98° |
| 2026-04-23 12:11 | -15.87154 | -54.38159 | 25042 ft | 251 kts | 98° |
| 2026-04-23 12:11 | -15.87440 | -54.36368 | 25046 ft | 251 kts | 98° |
| 2026-04-23 12:11 | -15.87727 | -54.34576 | 25045 ft | 252 kts | 98° |
| 2026-04-23 12:11 | -15.88014 | -54.32783 | 25046 ft | 252 kts | 98° |
| 2026-04-23 12:12 | -15.88301 | -54.30987 | 25047 ft | 252 kts | 97° |
| 2026-04-23 12:12 | -15.88587 | -54.29192 | 25045 ft | 252 kts | 97° |
| 2026-04-23 12:12 | -15.88874 | -54.27398 | 25046 ft | 252 kts | 97° |
| 2026-04-23 12:12 | -15.89160 | -54.25602 | 25047 ft | 252 kts | 97° |
| 2026-04-23 12:13 | -15.89447 | -54.23804 | 25045 ft | 252 kts | 97° |
| 2026-04-23 12:13 | -15.89735 | -54.22006 | 25045 ft | 252 kts | 97° |
| 2026-04-23 12:13 | -15.90022 | -54.20205 | 25042 ft | 253 kts | 97° |
| 2026-04-23 12:13 | -15.90307 | -54.18404 | 25041 ft | 253 kts | 97° |
| 2026-04-23 12:14 | -15.90593 | -54.16605 | 25041 ft | 252 kts | 97° |
| 2026-04-23 12:14 | -15.90880 | -54.14810 | 25042 ft | 252 kts | 97° |
| 2026-04-23 12:14 | -15.91165 | -54.13015 | 25039 ft | 252 kts | 97° |
| 2026-04-23 12:14 | -15.91449 | -54.11221 | 25042 ft | 252 kts | 97° |
| 2026-04-23 12:15 | -15.91734 | -54.09427 | 25044 ft | 252 kts | 97° |
| 2026-04-23 12:15 | -15.92019 | -54.07632 | 25044 ft | 252 kts | 97° |
| 2026-04-23 12:15 | -15.92304 | -54.05838 | 25045 ft | 251 kts | 97° |
| 2026-04-23 12:15 | -15.92587 | -54.04048 | 25043 ft | 251 kts | 97° |
| 2026-04-23 12:16 | -15.92867 | -54.02286 | 25047 ft | 250 kts | 97° |
| 2026-04-23 12:16 | -15.93148 | -54.00501 | 25046 ft | 251 kts | 97° |
| 2026-04-23 12:16 | -15.93431 | -53.98713 | 25046 ft | 251 kts | 97° |
| 2026-04-23 12:16 | -15.93716 | -53.96921 | 25043 ft | 251 kts | 97° |
| 2026-04-23 12:17 | -15.93999 | -53.95129 | 25044 ft | 251 kts | 97° |
| 2026-04-23 12:17 | -15.94281 | -53.93338 | 25044 ft | 251 kts | 97° |
| 2026-04-23 12:17 | -15.94564 | -53.91548 | 25046 ft | 251 kts | 97° |
| 2026-04-23 12:17 | -15.94846 | -53.89756 | 25046 ft | 251 kts | 97° |
| 2026-04-23 12:18 | -15.95130 | -53.87962 | 25044 ft | 252 kts | 97° |
| 2026-04-23 12:18 | -15.95414 | -53.86166 | 25046 ft | 252 kts | 97° |
| 2026-04-23 12:18 | -15.95696 | -53.84373 | 25046 ft | 251 kts | 97° |
| 2026-04-23 12:18 | -15.95977 | -53.82583 | 25045 ft | 251 kts | 97° |
| 2026-04-23 12:19 | -15.96258 | -53.80793 | 25045 ft | 251 kts | 97° |
| 2026-04-23 12:19 | -15.96540 | -53.79003 | 25046 ft | 251 kts | 97° |
| 2026-04-23 12:19 | -15.96822 | -53.77213 | 25044 ft | 251 kts | 97° |
| 2026-04-23 12:19 | -15.97104 | -53.75423 | 25048 ft | 251 kts | 97° |
| 2026-04-23 12:20 | -15.97384 | -53.73633 | 25048 ft | 251 kts | 97° |
| 2026-04-23 12:20 | -15.97665 | -53.71844 | 25045 ft | 251 kts | 97° |
| 2026-04-23 12:20 | -15.97946 | -53.70054 | 25043 ft | 251 kts | 97° |
| 2026-04-23 12:20 | -15.98227 | -53.68261 | 25045 ft | 251 kts | 97° |
| 2026-04-23 12:21 | -15.98507 | -53.66473 | 25047 ft | 251 kts | 97° |
| 2026-04-23 12:21 | -15.98787 | -53.64686 | 25044 ft | 250 kts | 97° |
| 2026-04-23 12:21 | -15.99067 | -53.62898 | 25044 ft | 251 kts | 97° |
| 2026-04-23 12:21 | -15.99345 | -53.61113 | 25048 ft | 250 kts | 97° |
| 2026-04-23 12:22 | -15.99625 | -53.59325 | 25046 ft | 251 kts | 97° |
| 2026-04-23 12:22 | -15.99906 | -53.57536 | 25044 ft | 251 kts | 97° |
| 2026-04-23 12:22 | -16.00184 | -53.55748 | 25045 ft | 251 kts | 97° |
| 2026-04-23 12:22 | -16.00463 | -53.53961 | 25046 ft | 250 kts | 97° |
| 2026-04-23 12:23 | -16.00742 | -53.52173 | 25051 ft | 250 kts | 97° |
| 2026-04-23 12:23 | -16.01020 | -53.50390 | 25052 ft | 250 kts | 97° |
| 2026-04-23 12:23 | -16.01298 | -53.48603 | 25043 ft | 250 kts | 97° |
| 2026-04-23 12:23 | -16.01577 | -53.46818 | 25046 ft | 251 kts | 97° |
| 2026-04-23 12:24 | -16.01856 | -53.45027 | 25043 ft | 251 kts | 97° |
| 2026-04-23 12:24 | -16.02133 | -53.43240 | 25044 ft | 250 kts | 97° |
| 2026-04-23 12:24 | -16.02410 | -53.41453 | 25045 ft | 250 kts | 97° |
| 2026-04-23 12:24 | -16.02688 | -53.39666 | 25046 ft | 250 kts | 97° |
| 2026-04-23 12:25 | -16.02966 | -53.37878 | 25048 ft | 250 kts | 97° |
| 2026-04-23 12:25 | -16.03243 | -53.36094 | 25042 ft | 250 kts | 97° |
| 2026-04-23 12:25 | -16.03520 | -53.34310 | 25043 ft | 250 kts | 97° |
| 2026-04-23 12:25 | -16.03796 | -53.32529 | 25039 ft | 250 kts | 97° |
| 2026-04-23 12:26 | -16.04071 | -53.30747 | 25044 ft | 249 kts | 97° |
| 2026-04-23 12:26 | -16.04348 | -53.28966 | 25044 ft | 250 kts | 97° |
| 2026-04-23 12:26 | -16.04620 | -53.27209 | 25042 ft | 250 kts | 97° |
| 2026-04-23 12:26 | -16.04895 | -53.25428 | 25042 ft | 249 kts | 97° |
| 2026-04-23 12:27 | -16.05171 | -53.23649 | 25041 ft | 249 kts | 97° |
| 2026-04-23 12:27 | -16.05449 | -53.21848 | 25042 ft | 249 kts | 97° |
| 2026-04-23 12:27 | -16.05722 | -53.20071 | 25041 ft | 249 kts | 97° |
| 2026-04-23 12:27 | -16.05997 | -53.18293 | 25043 ft | 249 kts | 97° |
| 2026-04-23 12:28 | -16.06271 | -53.16519 | 25046 ft | 249 kts | 97° |
| 2026-04-23 12:28 | -16.06544 | -53.14743 | 25043 ft | 249 kts | 96° |
| 2026-04-23 12:28 | -16.06818 | -53.12966 | 25042 ft | 249 kts | 97° |
| 2026-04-23 12:28 | -16.07093 | -53.11186 | 25040 ft | 249 kts | 97° |
| 2026-04-23 12:29 | -16.07367 | -53.09406 | 25039 ft | 249 kts | 97° |
| 2026-04-23 12:29 | -16.07640 | -53.07627 | 25039 ft | 250 kts | 97° |
| 2026-04-23 12:29 | -16.07911 | -53.05867 | 25039 ft | 250 kts | 96° |
| 2026-04-23 12:29 | -16.08185 | -53.04086 | 25039 ft | 249 kts | 96° |
| 2026-04-23 12:30 | -16.08458 | -53.02305 | 25040 ft | 249 kts | 96° |
| 2026-04-23 12:30 | -16.08731 | -53.00525 | 25040 ft | 249 kts | 96° |
| 2026-04-23 12:30 | -16.09004 | -52.98745 | 25040 ft | 249 kts | 96° |
| 2026-04-23 12:30 | -16.09276 | -52.96966 | 25043 ft | 249 kts | 96° |
| 2026-04-23 12:31 | -16.09548 | -52.95190 | 25041 ft | 249 kts | 96° |
| 2026-04-23 12:31 | -16.09821 | -52.93414 | 25042 ft | 248 kts | 96° |
| 2026-04-23 12:31 | -16.10092 | -52.91641 | 25040 ft | 249 kts | 96° |
| 2026-04-23 12:31 | -16.10363 | -52.89866 | 25041 ft | 249 kts | 96° |
| 2026-04-23 12:32 | -16.10635 | -52.88088 | 25041 ft | 249 kts | 96° |
| 2026-04-23 12:32 | -16.10907 | -52.86310 | 25041 ft | 249 kts | 96° |
| 2026-04-23 12:32 | -16.11179 | -52.84531 | 25041 ft | 249 kts | 96° |
| 2026-04-23 12:32 | -16.11450 | -52.82753 | 25039 ft | 249 kts | 96° |
| 2026-04-23 12:33 | -16.11721 | -52.80976 | 25042 ft | 249 kts | 96° |
| 2026-04-23 12:33 | -16.11991 | -52.79201 | 25040 ft | 249 kts | 96° |
| 2026-04-23 12:33 | -16.12262 | -52.77426 | 25038 ft | 248 kts | 96° |
| 2026-04-23 12:33 | -16.12532 | -52.75653 | 25038 ft | 248 kts | 96° |
| 2026-04-23 12:34 | -16.12802 | -52.73874 | 25039 ft | 249 kts | 96° |
| 2026-04-23 12:34 | -16.13071 | -52.72099 | 25039 ft | 248 kts | 96° |
| 2026-04-23 12:34 | -16.13251 | -52.70925 | 25039 ft | 248 kts | 96° |
| 2026-04-23 12:34 | -16.13529 | -52.69092 | 25043 ft | 248 kts | 96° |
| 2026-04-23 12:35 | -16.13798 | -52.67323 | 25040 ft | 248 kts | 96° |
| 2026-04-23 12:35 | -16.14066 | -52.65552 | 25044 ft | 248 kts | 96° |
| 2026-04-23 12:35 | -16.14335 | -52.63783 | 25043 ft | 248 kts | 96° |
| 2026-04-23 12:35 | -16.14603 | -52.62013 | 25043 ft | 248 kts | 96° |
| 2026-04-23 12:36 | -16.14872 | -52.60240 | 25042 ft | 248 kts | 96° |
| 2026-04-23 12:36 | -16.15140 | -52.58467 | 25043 ft | 248 kts | 96° |
| 2026-04-23 12:36 | -16.15408 | -52.56694 | 25044 ft | 248 kts | 96° |
| 2026-04-23 12:36 | -16.15677 | -52.54922 | 25043 ft | 248 kts | 96° |
| 2026-04-23 12:37 | -16.15945 | -52.53148 | 25042 ft | 248 kts | 96° |
| 2026-04-23 12:37 | -16.16212 | -52.51376 | 25043 ft | 248 kts | 96° |
| 2026-04-23 12:37 | -16.16477 | -52.49622 | 25041 ft | 249 kts | 96° |
| 2026-04-23 12:37 | -16.16745 | -52.47848 | 25045 ft | 248 kts | 96° |
| 2026-04-23 12:38 | -16.17012 | -52.46073 | 25042 ft | 249 kts | 96° |
| 2026-04-23 12:38 | -16.17280 | -52.44296 | 25043 ft | 248 kts | 96° |
| 2026-04-23 12:38 | -16.17548 | -52.42521 | 25047 ft | 248 kts | 96° |
| 2026-04-23 12:38 | -16.17814 | -52.40749 | 25043 ft | 248 kts | 96° |
| 2026-04-23 12:39 | -16.18081 | -52.38974 | 25044 ft | 248 kts | 96° |
| 2026-04-23 12:39 | -16.18348 | -52.37199 | 25043 ft | 248 kts | 96° |
| 2026-04-23 12:39 | -16.18616 | -52.35421 | 25043 ft | 249 kts | 96° |
| 2026-04-23 12:39 | -16.18883 | -52.33644 | 25040 ft | 249 kts | 96° |
| 2026-04-23 12:40 | -16.19149 | -52.31868 | 25040 ft | 248 kts | 96° |
| 2026-04-23 12:40 | -16.19415 | -52.30094 | 25039 ft | 248 kts | 96° |
| 2026-04-23 12:40 | -16.19681 | -52.28319 | 25037 ft | 248 kts | 96° |
| 2026-04-23 12:40 | -16.19946 | -52.26547 | 25039 ft | 248 kts | 96° |
| 2026-04-23 12:41 | -16.20212 | -52.24776 | 25044 ft | 248 kts | 96° |
| 2026-04-23 12:41 | -16.20477 | -52.23004 | 25039 ft | 248 kts | 96° |
| 2026-04-23 12:41 | -16.20742 | -52.21232 | 25040 ft | 248 kts | 96° |
| 2026-04-23 12:41 | -16.21009 | -52.19451 | 25043 ft | 249 kts | 96° |
| 2026-04-23 12:42 | -16.21275 | -52.17667 | 25041 ft | 250 kts | 96° |
| 2026-04-23 12:42 | -16.21538 | -52.15905 | 25044 ft | 250 kts | 96° |
| 2026-04-23 12:42 | -16.21804 | -52.14123 | 25041 ft | 249 kts | 96° |
| 2026-04-23 12:42 | -16.22070 | -52.12342 | 25043 ft | 249 kts | 96° |
| 2026-04-23 12:43 | -16.22335 | -52.10565 | 25040 ft | 249 kts | 96° |
| 2026-04-23 12:43 | -16.22599 | -52.08789 | 25043 ft | 248 kts | 96° |
| 2026-04-23 12:43 | -16.22863 | -52.07013 | 25039 ft | 248 kts | 96° |
| 2026-04-23 12:43 | -16.23127 | -52.05240 | 25039 ft | 248 kts | 96° |
| 2026-04-23 12:44 | -16.23390 | -52.03469 | 25039 ft | 248 kts | 96° |
| 2026-04-23 12:44 | -16.23654 | -52.01694 | 25038 ft | 248 kts | 96° |
| 2026-04-23 12:44 | -16.23917 | -51.99923 | 25036 ft | 248 kts | 96° |
| 2026-04-23 12:44 | -16.24181 | -51.98149 | 25032 ft | 248 kts | 96° |
| 2026-04-23 12:45 | -16.24444 | -51.96377 | 25039 ft | 248 kts | 96° |
| 2026-04-23 12:45 | -16.24706 | -51.94604 | 25035 ft | 248 kts | 96° |
| 2026-04-23 12:45 | -16.24969 | -51.92832 | 25035 ft | 248 kts | 96° |
| 2026-04-23 12:45 | -16.25231 | -51.91061 | 25040 ft | 248 kts | 96° |
| 2026-04-23 12:46 | -16.25495 | -51.89283 | 25039 ft | 248 kts | 96° |
| 2026-04-23 12:46 | -16.25757 | -51.87510 | 25040 ft | 248 kts | 96° |
| 2026-04-23 12:46 | -16.26020 | -51.85732 | 25039 ft | 249 kts | 96° |
| 2026-04-23 12:46 | -16.26282 | -51.83955 | 25040 ft | 249 kts | 96° |
| 2026-04-23 12:47 | -16.26544 | -51.82177 | 25039 ft | 249 kts | 96° |
| 2026-04-23 12:47 | -16.26808 | -51.80396 | 25039 ft | 249 kts | 96° |
| 2026-04-23 12:47 | -16.27070 | -51.78614 | 25039 ft | 249 kts | 96° |
| 2026-04-23 12:47 | -16.27334 | -51.76833 | 25039 ft | 249 kts | 96° |
| 2026-04-23 12:48 | -16.27596 | -51.75050 | 25041 ft | 249 kts | 96° |
| 2026-04-23 12:48 | -16.27858 | -51.73269 | 25040 ft | 249 kts | 96° |
| 2026-04-23 12:48 | -16.28120 | -51.71488 | 25039 ft | 249 kts | 96° |
| 2026-04-23 12:48 | -16.28382 | -51.69705 | 25041 ft | 249 kts | 96° |
| 2026-04-23 12:49 | -16.28644 | -51.67924 | 25037 ft | 249 kts | 96° |
| 2026-04-23 12:49 | -16.28906 | -51.66141 | 25038 ft | 249 kts | 96° |
| 2026-04-23 12:49 | -16.29167 | -51.64363 | 25042 ft | 249 kts | 96° |
| 2026-04-23 12:49 | -16.29429 | -51.62581 | 25038 ft | 249 kts | 97° |
| 2026-04-23 12:50 | -16.29689 | -51.60802 | 25040 ft | 249 kts | 96° |
| 2026-04-23 12:50 | -16.29947 | -51.59042 | 25042 ft | 249 kts | 96° |
| 2026-04-23 12:50 | -16.30208 | -51.57262 | 25040 ft | 249 kts | 97° |
| 2026-04-23 12:50 | -16.30469 | -51.55476 | 25039 ft | 249 kts | 96° |
| 2026-04-23 12:51 | -16.30729 | -51.53693 | 25040 ft | 249 kts | 97° |
| 2026-04-23 12:51 | -16.30990 | -51.51912 | 25041 ft | 249 kts | 97° |
| 2026-04-23 12:51 | -16.31252 | -51.50126 | 25040 ft | 249 kts | 97° |
| 2026-04-23 12:51 | -16.31512 | -51.48343 | 25043 ft | 249 kts | 96° |
| 2026-04-23 12:52 | -16.31687 | -51.47136 | 25041 ft | 249 kts | 97° |
| 2026-04-23 12:52 | -16.31948 | -51.45352 | 25039 ft | 249 kts | 97° |
| 2026-04-23 12:52 | -16.32208 | -51.43570 | 25046 ft | 249 kts | 97° |
| 2026-04-23 12:52 | -16.32464 | -51.41814 | 25044 ft | 249 kts | 97° |
| 2026-04-23 12:53 | -16.32724 | -51.40032 | 25044 ft | 249 kts | 97° |
| 2026-04-23 12:53 | -16.32982 | -51.38251 | 25048 ft | 249 kts | 97° |
| 2026-04-23 12:53 | -16.33241 | -51.36473 | 25045 ft | 248 kts | 97° |
| 2026-04-23 12:53 | -16.33499 | -51.34692 | 25046 ft | 248 kts | 97° |
| 2026-04-23 12:54 | -16.33758 | -51.32916 | 25048 ft | 248 kts | 97° |
| 2026-04-23 12:54 | -16.34016 | -51.31136 | 25047 ft | 249 kts | 97° |
| 2026-04-23 12:54 | -16.34274 | -51.29356 | 25045 ft | 249 kts | 97° |
| 2026-04-23 12:54 | -16.34532 | -51.27578 | 25047 ft | 248 kts | 96° |
| 2026-04-23 12:55 | -16.34789 | -51.25804 | 25051 ft | 248 kts | 97° |
| 2026-04-23 12:55 | -16.35045 | -51.24029 | 25048 ft | 247 kts | 97° |
| 2026-04-23 12:55 | -16.35300 | -51.22278 | 25048 ft | 242 kts | 97° |
| 2026-04-23 12:55 | -16.35549 | -51.20556 | 25050 ft | 239 kts | 97° |
| 2026-04-23 12:56 | -16.35793 | -51.18854 | 25049 ft | 237 kts | 97° |
| 2026-04-23 12:56 | -16.36036 | -51.17169 | 25053 ft | 234 kts | 97° |
| 2026-04-23 12:56 | -16.36278 | -51.15496 | 25054 ft | 233 kts | 97° |
| 2026-04-23 12:56 | -16.36517 | -51.13834 | 25052 ft | 232 kts | 97° |
| 2026-04-23 12:57 | -16.36748 | -51.12183 | 25048 ft | 230 kts | 95° |
| 2026-04-23 12:57 | -16.36885 | -51.10525 | 25047 ft | 229 kts | 92° |
| 2026-04-23 12:57 | -16.36993 | -51.08865 | 25048 ft | 232 kts | 92° |
| 2026-04-23 12:57 | -16.37129 | -51.07175 | 25051 ft | 236 kts | 94° |
| 2026-04-23 12:58 | -16.37280 | -51.05463 | 25046 ft | 239 kts | 94° |
| 2026-04-23 12:58 | -16.37427 | -51.03732 | 25049 ft | 241 kts | 93° |
| 2026-04-23 12:58 | -16.37570 | -51.01988 | 25052 ft | 242 kts | 93° |
| 2026-04-23 12:58 | -16.37715 | -51.00236 | 25052 ft | 244 kts | 94° |
| 2026-04-23 12:59 | -16.37863 | -50.98475 | 25049 ft | 245 kts | 94° |
| 2026-04-23 12:59 | -16.38009 | -50.96707 | 25050 ft | 245 kts | 94° |
| 2026-04-23 12:59 | -16.38157 | -50.94937 | 25053 ft | 245 kts | 94° |
| 2026-04-23 12:59 | -16.38304 | -50.93164 | 25050 ft | 246 kts | 94° |
| 2026-04-23 13:00 | -16.38450 | -50.91386 | 25049 ft | 247 kts | 94° |
| 2026-04-23 13:00 | -16.38597 | -50.89608 | 25054 ft | 247 kts | 93° |
| 2026-04-23 13:00 | -16.38745 | -50.87824 | 25054 ft | 248 kts | 94° |
| 2026-04-23 13:00 | -16.38893 | -50.86036 | 25053 ft | 248 kts | 94° |
| 2026-04-23 13:01 | -16.39041 | -50.84254 | 25052 ft | 248 kts | 94° |
| 2026-04-23 13:01 | -16.39186 | -50.82468 | 25054 ft | 248 kts | 94° |
| 2026-04-23 13:01 | -16.39333 | -50.80682 | 25051 ft | 248 kts | 94° |
| 2026-04-23 13:01 | -16.39479 | -50.78897 | 25053 ft | 248 kts | 94° |
| 2026-04-23 13:02 | -16.39625 | -50.77133 | 25053 ft | 248 kts | 94° |
| 2026-04-23 13:02 | -16.39774 | -50.75320 | 25056 ft | 248 kts | 94° |
| 2026-04-23 13:02 | -16.39920 | -50.73533 | 25053 ft | 248 kts | 94° |
| 2026-04-23 13:02 | -16.40064 | -50.71767 | 25052 ft | 248 kts | 94° |
| 2026-04-23 13:03 | -16.40211 | -50.69978 | 25056 ft | 248 kts | 94° |
| 2026-04-23 13:03 | -16.40358 | -50.68163 | 25058 ft | 248 kts | 94° |
| 2026-04-23 13:03 | -16.40503 | -50.66395 | 25058 ft | 249 kts | 94° |
| 2026-04-23 13:03 | -16.40649 | -50.64601 | 25056 ft | 249 kts | 94° |
| 2026-04-23 13:04 | -16.40795 | -50.62806 | 25052 ft | 249 kts | 94° |
| 2026-04-23 13:04 | -16.40941 | -50.61013 | 25054 ft | 249 kts | 94° |
| 2026-04-23 13:04 | -16.41086 | -50.59219 | 25053 ft | 249 kts | 94° |
| 2026-04-23 13:04 | -16.41233 | -50.57426 | 25052 ft | 248 kts | 94° |
| 2026-04-23 13:05 | -16.41377 | -50.55633 | 25056 ft | 248 kts | 94° |
| 2026-04-23 13:05 | -16.41522 | -50.53840 | 25055 ft | 248 kts | 94° |
| 2026-04-23 13:05 | -16.41667 | -50.52052 | 25052 ft | 248 kts | 94° |
| 2026-04-23 13:05 | -16.41812 | -50.50263 | 25052 ft | 248 kts | 94° |
| 2026-04-23 13:06 | -16.42100 | -50.46688 | 25055 ft | 248 kts | 94° |
| 2026-04-23 13:06 | -16.42243 | -50.44897 | 25052 ft | 248 kts | 94° |
| 2026-04-23 13:06 | -16.42389 | -50.43099 | 24940 ft | 251 kts | 94° |
| 2026-04-23 13:07 | -16.42538 | -50.41268 | 24663 ft | 257 kts | 94° |
| 2026-04-23 13:07 | -16.42689 | -50.39391 | 24335 ft | 263 kts | 94° |
| 2026-04-23 13:07 | -16.42842 | -50.37473 | 23989 ft | 268 kts | 94° |
| 2026-04-23 13:07 | -16.42999 | -50.35527 | 23628 ft | 271 kts | 94° |
| 2026-04-23 13:08 | -16.43157 | -50.33572 | 23229 ft | 271 kts | 94° |
| 2026-04-23 13:08 | -16.43314 | -50.31619 | 22870 ft | 270 kts | 94° |
| 2026-04-23 13:08 | -16.43468 | -50.29670 | 22512 ft | 270 kts | 94° |
| 2026-04-23 13:08 | -16.43623 | -50.27729 | 22156 ft | 269 kts | 95° |
| 2026-04-23 13:09 | -16.43778 | -50.25793 | 21801 ft | 268 kts | 95° |
| 2026-04-23 13:09 | -16.43931 | -50.23867 | 21451 ft | 265 kts | 95° |
| 2026-04-23 13:09 | -16.44083 | -50.21961 | 21103 ft | 263 kts | 95° |
| 2026-04-23 13:09 | -16.44233 | -50.20072 | 20757 ft | 259 kts | 95° |
| 2026-04-23 13:10 | -16.44380 | -50.18216 | 20423 ft | 255 kts | 95° |
| 2026-04-23 13:10 | -16.44523 | -50.16386 | 20088 ft | 252 kts | 95° |
| 2026-04-23 13:10 | -16.44667 | -50.14572 | 19757 ft | 250 kts | 96° |
| 2026-04-23 13:10 | -16.44809 | -50.12774 | 19428 ft | 248 kts | 96° |
| 2026-04-23 13:11 | -16.44950 | -50.10987 | 19101 ft | 247 kts | 96° |
| 2026-04-23 13:11 | -16.45090 | -50.09210 | 18783 ft | 246 kts | 96° |
| 2026-04-23 13:11 | -16.45230 | -50.07438 | 18456 ft | 245 kts | 96° |
| 2026-04-23 13:11 | -16.45368 | -50.05673 | 18100 ft | 243 kts | 96° |
| 2026-04-23 13:12 | -16.45504 | -50.03922 | 17773 ft | 241 kts | 96° |
| 2026-04-23 13:12 | -16.45642 | -50.02187 | 17449 ft | 239 kts | 97° |
| 2026-04-23 13:12 | -16.45776 | -50.00467 | 17140 ft | 237 kts | 96° |
| 2026-04-23 13:12 | -16.45910 | -49.98758 | 16823 ft | 236 kts | 96° |
| 2026-04-23 13:13 | -16.46043 | -49.97059 | 16512 ft | 235 kts | 97° |
| 2026-04-23 13:13 | -16.46175 | -49.95364 | 16206 ft | 234 kts | 97° |
| 2026-04-23 13:13 | -16.46306 | -49.93700 | 15903 ft | 234 kts | 97° |
| 2026-04-23 13:13 | -16.46428 | -49.92146 | 15613 ft | 233 kts | 97° |
| 2026-04-23 13:14 | -16.46557 | -49.90470 | 15314 ft | 232 kts | 97° |
| 2026-04-23 13:14 | -16.46688 | -49.88799 | 15010 ft | 231 kts | 97° |
| 2026-04-23 13:14 | -16.46817 | -49.87139 | 14702 ft | 229 kts | 97° |
| 2026-04-23 13:14 | -16.46945 | -49.85487 | 14402 ft | 228 kts | 97° |
| 2026-04-23 13:15 | -16.47072 | -49.83842 | 14100 ft | 227 kts | 97° |
| 2026-04-23 13:15 | -16.47200 | -49.82205 | 13789 ft | 227 kts | 97° |
| 2026-04-23 13:15 | -16.47327 | -49.80570 | 13473 ft | 225 kts | 97° |
| 2026-04-23 13:15 | -16.47451 | -49.78956 | 13178 ft | 223 kts | 97° |
| 2026-04-23 13:16 | -16.47574 | -49.77345 | 12880 ft | 223 kts | 97° |
| 2026-04-23 13:16 | -16.47699 | -49.75741 | 12586 ft | 222 kts | 97° |
| 2026-04-23 13:16 | -16.47822 | -49.74143 | 12296 ft | 221 kts | 97° |
| 2026-04-23 13:16 | -16.47945 | -49.72545 | 12006 ft | 221 kts | 97° |
| 2026-04-23 13:17 | -16.48028 | -49.71468 | 11813 ft | 221 kts | 97° |
| 2026-04-23 13:17 | -16.48044 | -49.71253 | 11785 ft | 220 kts | 97° |
| 2026-04-23 13:18 | -16.48154 | -49.69829 | 11509 ft | 222 kts | 97° |
| 2026-04-23 13:18 | -16.48278 | -49.68229 | 11217 ft | 222 kts | 97° |
| 2026-04-23 13:18 | -16.48401 | -49.66624 | 10921 ft | 222 kts | 97° |
| 2026-04-23 13:18 | -16.48519 | -49.65050 | 10635 ft | 216 kts | 97° |
| 2026-04-23 13:19 | -16.48641 | -49.63500 | 10352 ft | 214 kts | 97° |
| 2026-04-23 13:19 | -16.48758 | -49.61955 | 10076 ft | 214 kts | 97° |
| 2026-04-23 13:19 | -16.48879 | -49.60414 | 9776 ft | 213 kts | 97° |
| 2026-04-23 13:19 | -16.48992 | -49.58882 | 9490 ft | 211 kts | 96° |
| 2026-04-23 13:20 | -16.49107 | -49.57369 | 9211 ft | 209 kts | 97° |
| 2026-04-23 13:20 | -16.49222 | -49.55864 | 8932 ft | 207 kts | 96° |
| 2026-04-23 13:20 | -16.49337 | -49.54374 | 8670 ft | 206 kts | 96° |
| 2026-04-23 13:20 | -16.49448 | -49.52890 | 8395 ft | 205 kts | 96° |
| 2026-04-23 13:21 | -16.49558 | -49.51423 | 8136 ft | 201 kts | 96° |
| 2026-04-23 13:21 | -16.49668 | -49.50010 | 7879 ft | 187 kts | 96° |
| 2026-04-23 13:21 | -16.49763 | -49.48754 | 7675 ft | 167 kts | 96° |
| 2026-04-23 13:21 | -16.49854 | -49.47541 | 7447 ft | 169 kts | 96° |
| 2026-04-23 13:22 | -16.49941 | -49.46352 | 7231 ft | 159 kts | 95° |
| 2026-04-23 13:22 | -16.50195 | -49.45281 | 7109 ft | 145 kts | 115° |
| 2026-04-23 13:22 | -16.50671 | -49.44418 | 7090 ft | 131 kts | 119° |
| 2026-04-23 13:22 | -16.51124 | -49.43604 | 7102 ft | 129 kts | 118° |
| 2026-04-23 13:23 | -16.51585 | -49.42770 | 7108 ft | 136 kts | 119° |
| 2026-04-23 13:23 | -16.52070 | -49.41910 | 7120 ft | 138 kts | 119° |
| 2026-04-23 13:23 | -16.52544 | -49.41069 | 7050 ft | 133 kts | 118° |
| 2026-04-23 13:23 | -16.53009 | -49.40253 | 6851 ft | 131 kts | 119° |
| 2026-04-23 13:24 | -16.53466 | -49.39440 | 6614 ft | 129 kts | 117° |
| 2026-04-23 13:24 | -16.53918 | -49.38636 | 6358 ft | 127 kts | 118° |
| 2026-04-23 13:24 | -16.54369 | -49.37846 | 6118 ft | 128 kts | 118° |
| 2026-04-23 13:24 | -16.54811 | -49.37050 | 5887 ft | 128 kts | 118° |
| 2026-04-23 13:25 | -16.55262 | -49.36251 | 5631 ft | 125 kts | 117° |
| 2026-04-23 13:25 | -16.55697 | -49.35469 | 5396 ft | 123 kts | 116° |
| 2026-04-23 13:25 | -16.56123 | -49.34720 | 5190 ft | 118 kts | 117° |
| 2026-04-23 13:25 | -16.56527 | -49.33994 | 4956 ft | 115 kts | 116° |
| 2026-04-23 13:26 | -16.56946 | -49.33263 | 4731 ft | 124 kts | 116° |
| 2026-04-23 13:26 | -16.57363 | -49.32507 | 4620 ft | 119 kts | 117° |
| 2026-04-23 13:26 | -16.57789 | -49.31741 | 4476 ft | 126 kts | 114° |
| 2026-04-23 13:26 | -16.58240 | -49.30931 | 4262 ft | 131 kts | 115° |
| 2026-04-23 13:27 | -16.58698 | -49.30123 | 4250 ft | 127 kts | 116° |
| 2026-04-23 13:27 | -16.59129 | -49.29368 | 4250 ft | 116 kts | 115° |
| 2026-04-23 13:27 | -16.59524 | -49.28674 | 4128 ft | 108 kts | 115° |
| 2026-04-23 13:27 | -16.59889 | -49.28015 | 3991 ft | 103 kts | 116° |
| 2026-04-23 13:28 | -16.60253 | -49.27368 | 3840 ft | 101 kts | 116° |
| 2026-04-23 13:28 | -16.60597 | -49.26756 | 3684 ft | 93 kts | 116° |
| 2026-04-23 13:28 | -16.60908 | -49.26186 | 3515 ft | 90 kts | 117° |
| 2026-04-23 13:28 | -16.61223 | -49.25611 | 3372 ft | 96 kts | 118° |
| 2026-04-23 13:29 | -16.61585 | -49.24976 | 3208 ft | 106 kts | 118° |
| 2026-04-23 13:29 | -16.61958 | -49.24287 | 2929 ft | 110 kts | 119° |
| 2026-04-23 13:29 | -16.62332 | -49.23620 | 2590 ft | 102 kts | 120° |
| 2026-04-23 13:29 | -16.62694 | -49.22991 | 2471 ft | 97 kts | 121° |
| 2026-04-23 13:30 | -16.63001 | -49.22457 | 2449 ft | 72 kts | 117° |
| 2026-04-23 13:30 | -16.63160 | -49.22152 | 2437 ft | 15 kts | 109° |
| 2026-04-23 13:30 | -16.63175 | -49.22171 | 2451 ft | 13 kts | 301° |
| 2026-04-23 13:30 | -16.63207 | -49.22225 | 2441 ft | 0 kts | 211° |
| 2026-04-23 13:31 | -16.63228 | -49.22245 | 2440 ft | 9 kts | 218° |
| 2026-04-23 13:31 | -16.63315 | -49.22295 | 2436 ft | 19 kts | 216° |
| 2026-04-23 13:31 | -16.63411 | -49.22227 | 2432 ft | 24 kts | 116° |
| 2026-04-23 13:32 | -16.63484 | -49.22093 | 2435 ft | 19 kts | 121° |
| 2026-04-23 13:32 | -16.63521 | -49.22031 | 2438 ft | 2 kts | 160° |
| 2026-04-23 13:32 | -16.63562 | -49.22001 | 2435 ft | 11 kts | 114° |
| 2026-04-23 13:32 | -16.63578 | -49.22011 | 2431 ft | 0 kts | 304° |